createdAt,value
2018-08-31T00:01:18.906Z,14.53
2018-08-31T00:05:04.715Z,14.83
2018-08-31T00:07:54.692Z,14.33
2018-08-31T00:12:39.195Z,13.30
2018-08-31T00:15:10.029Z,15.13
2018-08-31T00:17:41.474Z,14.73
2018-08-31T00:20:13.351Z,13.10
2018-08-31T00:22:43.664Z,13.93
2018-08-31T00:26:04.384Z,14.47
2018-08-31T00:29:06.420Z,14.57
2018-08-31T00:33:57.758Z,14.40
2018-08-31T00:37:47.484Z,13.70
2018-08-31T00:41:34.649Z,13.20
2018-08-31T00:46:25.411Z,13.60
2018-08-31T00:48:56.261Z,13.23
2018-08-31T00:51:26.784Z,13.20
2018-08-31T00:53:57.259Z,12.47
2018-08-31T00:56:27.589Z,14.90
2018-08-31T00:58:57.870Z,13.40
2018-08-31T01:01:28.907Z,13.40
2018-08-31T01:03:59.537Z,13.90
2018-08-31T01:06:29.904Z,14.17
2018-08-31T01:09:00.948Z,13.90
2018-08-31T01:11:31.289Z,13.20
2018-08-31T01:14:03.456Z,13.90
2018-08-31T01:16:34.776Z,14.13
2018-08-31T01:19:06.077Z,13.93
2018-08-31T01:21:36.816Z,13.30
2018-08-31T01:24:08.424Z,14.90
2018-08-31T01:26:40.182Z,14.93
2018-08-31T01:29:11.612Z,14.30
2018-08-31T01:31:41.861Z,13.77
2018-08-31T01:34:12.434Z,13.27
2018-08-31T01:36:43.413Z,13.57
2018-08-31T01:39:14.554Z,14.93
2018-08-31T01:41:45.856Z,13.60
2018-08-31T01:44:17.099Z,13.63
2018-08-31T01:46:48.624Z,13.50
2018-08-31T01:49:21.180Z,13.93
2018-08-31T01:51:53.474Z,14.27
2018-08-31T01:54:24.982Z,14.90
2018-08-31T01:56:56.153Z,13.20
2018-08-31T01:59:26.868Z,15.17
2018-08-31T02:01:57.686Z,13.30
2018-08-31T02:04:28.873Z,14.07
2018-08-31T02:06:59.321Z,13.30
2018-08-31T02:09:29.917Z,14.03
2018-08-31T02:12:00.748Z,14.10
2018-08-31T02:14:31.022Z,14.00
2018-08-31T02:17:01.493Z,14.37
2018-08-31T02:19:31.883Z,14.17
2018-08-31T02:22:02.387Z,14.13
2018-08-31T02:24:33.736Z,13.10
2018-08-31T02:27:04.126Z,13.47
2018-08-31T02:29:34.932Z,14.93
2018-08-31T02:32:06.488Z,14.40
2018-08-31T02:34:38.443Z,14.33
2018-08-31T02:37:09.940Z,13.97
2018-08-31T02:39:40.296Z,14.70
2018-08-31T02:42:10.773Z,13.30
2018-08-31T02:44:41.448Z,13.27
2018-08-31T02:47:15.538Z,13.93
2018-08-31T02:49:45.851Z,13.97
2018-08-31T02:52:16.684Z,14.30
2018-08-31T02:54:47.025Z,14.40
2018-08-31T02:57:19.189Z,15.37
2018-08-31T02:59:50.188Z,13.77
2018-08-31T03:02:21.769Z,15.70
2018-08-31T03:04:52.605Z,14.40
2018-08-31T03:07:23.428Z,14.07
2018-08-31T03:09:55.198Z,15.10
2018-08-31T03:12:27.388Z,14.77
2018-08-31T03:14:57.676Z,14.80
2018-08-31T03:17:28.436Z,14.70
2018-08-31T03:19:58.664Z,14.60
2018-08-31T03:22:29.691Z,14.63
2018-08-31T03:25:00.869Z,15.37
2018-08-31T03:27:31.280Z,15.03
2018-08-31T03:30:01.960Z,15.60
2018-08-31T03:32:32.733Z,13.60
2018-08-31T03:35:03.744Z,14.10
2018-08-31T03:37:33.984Z,14.90
2018-08-31T03:40:04.345Z,13.40
2018-08-31T03:42:37.192Z,14.63
2018-08-31T03:45:07.980Z,16.17
2018-08-31T03:47:38.523Z,15.10
2018-08-31T03:50:09.052Z,14.93
2018-08-31T03:52:39.295Z,14.40
2018-08-31T03:55:10.233Z,15.40
2018-08-31T03:57:46.936Z,14.90
2018-08-31T04:00:18.206Z,13.97
2018-08-31T04:02:50.239Z,14.60
2018-08-31T04:05:20.918Z,14.53
2018-08-31T04:07:52.418Z,14.60
2018-08-31T04:10:23.470Z,13.40
2018-08-31T04:12:53.740Z,13.97
2018-08-31T04:15:25.409Z,13.90
2018-08-31T04:17:56.286Z,13.77
2018-08-31T04:20:27.619Z,13.80
2018-08-31T04:22:57.876Z,14.90
2018-08-31T04:25:29.207Z,13.57
2018-08-31T04:28:00.293Z,15.10
2018-08-31T04:30:30.920Z,14.17
2018-08-31T04:33:01.335Z,14.30
2018-08-31T04:35:32.261Z,13.30
2018-08-31T04:38:03.598Z,13.87
2018-08-31T04:40:34.006Z,13.60
2018-08-31T04:43:05.287Z,14.17
2018-08-31T04:45:35.756Z,13.83
2018-08-31T04:48:06.998Z,14.43
2018-08-31T04:50:42.284Z,14.17
2018-08-31T04:53:12.816Z,14.47
2018-08-31T04:55:43.129Z,14.40
2018-08-31T04:58:13.396Z,14.97
2018-08-31T05:00:44.598Z,14.43
2018-08-31T05:03:15.378Z,15.83
2018-08-31T05:05:47.755Z,16.23
2018-08-31T05:08:18.075Z,16.17
2018-08-31T05:10:48.999Z,15.30
2018-08-31T05:13:20.945Z,15.70
2018-08-31T05:15:51.297Z,15.17
2018-08-31T05:18:22.876Z,15.43
2018-08-31T05:20:53.220Z,15.67
2018-08-31T05:23:23.837Z,15.77
2018-08-31T05:25:56.012Z,16.30
2018-08-31T05:28:26.755Z,17.33
2018-08-31T05:30:59.668Z,16.67
2018-08-31T05:33:30.024Z,15.77
2018-08-31T05:36:02.667Z,16.33
2018-08-31T05:38:33.644Z,16.80
2018-08-31T05:41:07.193Z,18.03
2018-08-31T05:43:41.456Z,16.00
2018-08-31T05:46:11.795Z,17.40
2018-08-31T05:48:42.202Z,17.57
2018-08-31T05:51:12.484Z,16.13
2018-08-31T05:53:43.443Z,17.80
2018-08-31T05:56:27.445Z,17.60
2018-08-31T05:59:00.023Z,17.33
2018-08-31T06:01:30.965Z,16.37
2018-08-31T06:04:01.382Z,16.17
2018-08-31T06:06:31.781Z,16.13
2018-08-31T06:09:02.957Z,17.63
2018-08-31T06:11:33.261Z,17.07
2018-08-31T06:14:03.911Z,17.27
2018-08-31T06:16:34.168Z,17.30
2018-08-31T06:19:04.516Z,16.10
2018-08-31T06:21:34.914Z,16.23
2018-08-31T06:24:05.297Z,16.43
2018-08-31T06:26:35.748Z,17.17
2018-08-31T06:29:06.953Z,17.40
2018-08-31T06:31:37.239Z,17.53
2018-08-31T06:34:08.659Z,16.43
2018-08-31T06:36:38.990Z,17.47
2018-08-31T06:39:09.569Z,17.57
2018-08-31T06:41:39.866Z,17.43
2018-08-31T06:44:10.732Z,18.40
2018-08-31T06:46:41.081Z,18.83
2018-08-31T06:49:11.639Z,17.63
2018-08-31T06:51:42.386Z,18.30
2018-08-31T06:54:12.686Z,17.60
2018-08-31T06:56:43.068Z,17.33
2018-08-31T06:59:13.518Z,17.57
2018-08-31T07:01:43.983Z,23.77
2018-08-31T07:04:14.633Z,16.97
2018-08-31T07:06:45.012Z,18.10
2018-08-31T07:09:15.373Z,17.33
2018-08-31T07:11:45.735Z,17.90
2018-08-31T07:14:16.021Z,19.03
2018-08-31T07:16:46.322Z,18.70
2018-08-31T07:19:16.810Z,20.37
2018-08-31T07:21:47.149Z,17.73
2018-08-31T07:24:17.732Z,18.20
2018-08-31T07:26:48.949Z,18.20
2018-08-31T07:29:19.225Z,18.80
2018-08-31T07:31:49.560Z,19.03
2018-08-31T07:34:19.873Z,16.47
2018-08-31T07:36:50.277Z,17.07
2018-08-31T07:39:20.616Z,15.90
2018-08-31T07:41:51.176Z,16.57
2018-08-31T07:44:21.498Z,18.00
2018-08-31T07:46:53.564Z,18.00
2018-08-31T07:49:24.900Z,20.20
2018-08-31T07:51:55.388Z,19.87
2018-08-31T07:54:27.168Z,20.00
2018-08-31T07:56:57.545Z,20.60
2018-08-31T07:59:29.597Z,19.07
2018-08-31T08:01:59.931Z,20.13
2018-08-31T08:04:32.438Z,19.20
2018-08-31T08:07:02.769Z,21.00
2018-08-31T08:09:33.479Z,20.03
2018-08-31T08:12:03.813Z,21.20
2018-08-31T08:14:34.088Z,21.70
2018-08-31T08:17:04.565Z,19.60
2018-08-31T08:19:36.177Z,19.83
2018-08-31T08:22:06.553Z,19.90
2018-08-31T08:24:36.806Z,20.90
2018-08-31T08:27:07.530Z,21.23
2018-08-31T08:29:37.823Z,19.00
2018-08-31T08:32:08.220Z,17.20
2018-08-31T08:34:38.917Z,18.07
2018-08-31T08:37:09.302Z,17.33
2018-08-31T08:39:39.606Z,18.93
2018-08-31T08:42:10.951Z,16.90
2018-08-31T08:44:41.328Z,18.20
2018-08-31T08:47:11.659Z,19.00
2018-08-31T08:49:42.186Z,17.47
2018-08-31T08:52:12.445Z,17.80
2018-08-31T08:54:42.844Z,17.27
2018-08-31T08:57:15.184Z,17.37
2018-08-31T08:59:45.484Z,17.60
2018-08-31T09:02:15.778Z,17.90
2018-08-31T09:04:46.104Z,16.87
2018-08-31T09:07:18.015Z,17.30
2018-08-31T09:09:49.088Z,18.43
2018-08-31T09:12:19.487Z,18.53
2018-08-31T09:14:49.872Z,16.73
2018-08-31T09:17:20.199Z,17.00
2018-08-31T09:19:51.239Z,16.00
2018-08-31T09:22:21.622Z,16.20
2018-08-31T09:24:52.926Z,16.33
2018-08-31T09:27:28.748Z,15.90
2018-08-31T09:29:59.138Z,13.83
2018-08-31T09:32:30.917Z,13.20
2018-08-31T09:35:02.028Z,13.90
2018-08-31T09:37:32.345Z,15.30
2018-08-31T09:40:02.701Z,14.00
2018-08-31T09:42:32.957Z,12.00
2018-08-31T09:45:03.514Z,12.13
2018-08-31T09:47:33.887Z,13.43
2018-08-31T09:50:04.345Z,12.60
2018-08-31T09:52:34.732Z,13.17
2018-08-31T09:55:07.045Z,13.73
2018-08-31T09:57:38.188Z,13.90
2018-08-31T10:00:09.085Z,14.37
2018-08-31T10:02:44.537Z,14.97
2018-08-31T10:05:17.843Z,12.93
2018-08-31T10:07:48.182Z,11.90
2018-08-31T10:10:19.118Z,12.23
2018-08-31T10:12:49.462Z,11.70
2018-08-31T10:15:19.815Z,11.03
2018-08-31T10:17:52.128Z,13.03
2018-08-31T10:20:30.800Z,13.63
2018-08-31T10:23:04.468Z,12.17
2018-08-31T10:25:36.012Z,12.40
2018-08-31T10:28:08.178Z,11.43
2018-08-31T10:30:39.241Z,13.07
2018-08-31T10:33:09.693Z,11.77
2018-08-31T10:35:40.072Z,11.63
2018-08-31T10:38:10.906Z,11.07
2018-08-31T10:40:41.277Z,11.50
2018-08-31T10:43:11.766Z,11.63
2018-08-31T10:45:42.206Z,10.90
2018-08-31T10:48:12.546Z,10.97
2018-08-31T10:50:42.949Z,10.37
2018-08-31T10:53:13.307Z,10.17
2018-08-31T10:55:43.805Z,10.10
2018-08-31T10:58:14.127Z,10.50
2018-08-31T11:00:44.490Z,11.03
2018-08-31T11:03:14.862Z,7.77
2018-08-31T11:05:45.305Z,22.27
2018-08-31T11:08:15.786Z,8.23
2018-08-31T11:10:46.145Z,7.73
2018-08-31T11:13:16.560Z,9.13
2018-08-31T11:15:46.993Z,6.63
2018-08-31T11:18:17.344Z,5.40
2018-08-31T11:20:47.796Z,4.70
2018-08-31T11:23:18.234Z,5.20
2018-08-31T11:25:49.733Z,5.00
2018-08-31T11:28:20.197Z,4.70
2018-08-31T11:30:50.725Z,4.73
2018-08-31T11:33:22.064Z,5.10
2018-08-31T11:35:52.415Z,12.50
2018-08-31T11:38:22.941Z,16.67
2018-08-31T11:40:59.688Z,10.00
2018-08-31T11:43:32.670Z,5.93
2018-08-31T11:46:06.652Z,5.87
2018-08-31T11:48:37.765Z,5.70
2018-08-31T11:51:08.227Z,5.43
2018-08-31T11:53:38.861Z,5.83
2018-08-31T11:56:09.222Z,6.43
2018-08-31T11:58:39.652Z,6.40
2018-08-31T12:01:10.133Z,6.90
2018-08-31T12:03:40.759Z,12.20
2018-08-31T12:06:11.058Z,7.33
2018-08-31T12:08:41.859Z,6.10
2018-08-31T12:11:12.454Z,5.73
2018-08-31T12:13:43.033Z,6.27
2018-08-31T12:16:13.421Z,5.57
2018-08-31T12:18:43.785Z,6.33
2018-08-31T12:21:14.180Z,6.97
2018-08-31T12:23:46.207Z,6.13
2018-08-31T12:26:17.978Z,6.60
2018-08-31T12:28:48.921Z,6.80
2018-08-31T12:31:21.195Z,6.50
2018-08-31T12:33:52.649Z,6.73
2018-08-31T12:36:22.965Z,6.43
2018-08-31T12:38:53.329Z,6.60
2018-08-31T12:41:23.695Z,6.43
2018-08-31T12:43:54.710Z,6.43
2018-08-31T12:46:25.080Z,7.10
2018-08-31T12:48:55.629Z,6.73
2018-08-31T12:51:26.645Z,7.73
2018-08-31T12:53:57.291Z,7.30
2018-08-31T12:56:39.469Z,6.60
2018-08-31T12:59:17.331Z,6.97
2018-08-31T13:01:59.428Z,6.70
2018-08-31T13:04:39.221Z,6.67
2018-08-31T13:07:12.472Z,6.80
2018-08-31T13:09:43.353Z,9.40
2018-08-31T13:12:14.592Z,11.13
2018-08-31T13:14:44.964Z,7.90
2018-08-31T13:17:16.436Z,7.60
2018-08-31T13:19:47.493Z,7.70
2018-08-31T13:22:20.770Z,6.93
2018-08-31T13:24:51.892Z,6.80
2018-08-31T13:27:22.323Z,7.93
2018-08-31T13:29:54.060Z,7.30
2018-08-31T13:32:27.177Z,7.30
2018-08-31T13:34:58.050Z,6.90
2018-08-31T13:37:28.618Z,7.63
2018-08-31T13:39:59.257Z,7.53
2018-08-31T13:42:34.025Z,6.87
2018-08-31T13:45:05.294Z,7.30
2018-08-31T13:47:35.965Z,7.57
2018-08-31T13:50:07.012Z,20.80
2018-08-31T13:52:37.760Z,9.77
2018-08-31T13:55:08.577Z,16.90
2018-08-31T13:57:38.921Z,7.87
2018-08-31T14:00:10.658Z,8.17
2018-08-31T14:02:42.429Z,7.47
2018-08-31T14:05:13.837Z,7.50
2018-08-31T14:07:44.200Z,7.60
2018-08-31T14:10:15.213Z,7.50
2018-08-31T14:12:45.598Z,6.97
2018-08-31T14:15:15.854Z,7.80
2018-08-31T14:17:46.823Z,6.90
2018-08-31T14:20:18.485Z,7.47
2018-08-31T14:22:50.055Z,7.40
2018-08-31T14:25:21.010Z,7.50
2018-08-31T14:27:51.356Z,7.73
2018-08-31T14:30:22.185Z,8.50
2018-08-31T14:32:54.936Z,7.50
2018-08-31T14:35:28.226Z,7.80
2018-08-31T14:38:00.146Z,7.93
2018-08-31T14:40:31.129Z,7.57
2018-08-31T14:43:01.435Z,8.70
2018-08-31T14:45:32.020Z,7.40
2018-08-31T14:48:03.042Z,6.97
2018-08-31T14:50:37.700Z,8.40
2018-08-31T14:53:23.241Z,7.20
2018-08-31T14:55:53.568Z,8.03
2018-08-31T14:58:23.973Z,7.43
2018-08-31T15:00:54.708Z,7.73
2018-08-31T15:03:26.540Z,8.63
2018-08-31T15:05:57.476Z,7.70
2018-08-31T15:08:28.400Z,8.60
2018-08-31T15:10:59.344Z,7.20
2018-08-31T15:13:31.848Z,6.93
2018-08-31T15:16:03.033Z,7.30
2018-08-31T15:18:33.754Z,7.93
2018-08-31T15:21:04.188Z,7.40
2018-08-31T15:23:35.946Z,8.20
2018-08-31T15:26:07.452Z,8.43
2018-08-31T15:28:38.993Z,8.37
2018-08-31T15:31:10.068Z,8.37
2018-08-31T15:33:41.972Z,9.30
2018-08-31T15:36:14.569Z,10.50
2018-08-31T15:38:45.300Z,9.07
2018-08-31T15:41:15.805Z,8.90
2018-08-31T15:43:47.119Z,8.47
2018-08-31T15:46:17.581Z,8.00
2018-08-31T15:48:52.898Z,8.43
2018-08-31T15:51:23.258Z,12.60
2018-08-31T15:53:54.470Z,8.60
2018-08-31T15:56:25.186Z,8.47
2018-08-31T15:58:56.004Z,9.17
2018-08-31T16:01:28.563Z,9.10
2018-08-31T16:03:59.640Z,8.80
2018-08-31T16:06:30.037Z,9.77
2018-08-31T16:09:00.546Z,9.87
2018-08-31T16:11:32.101Z,10.27
2018-08-31T16:14:03.443Z,10.00
2018-08-31T16:16:34.168Z,10.70
2018-08-31T16:19:05.544Z,10.40
2018-08-31T16:21:35.982Z,10.20
2018-08-31T16:24:06.369Z,9.73
2018-08-31T16:26:37.153Z,9.80
2018-08-31T16:29:07.568Z,11.27
2018-08-31T16:31:38.241Z,10.00
2018-08-31T16:34:09.895Z,11.47
2018-08-31T16:36:40.859Z,10.60
2018-08-31T16:41:53.709Z,11.30
2018-08-31T16:47:02.673Z,11.00
2018-08-31T16:49:38.209Z,9.40
2018-08-31T16:52:08.876Z,11.50
2018-08-31T16:54:39.146Z,12.40
2018-08-31T16:57:09.785Z,11.13
2018-08-31T16:59:43.140Z,11.97
2018-08-31T17:02:14.235Z,12.07
2018-08-31T17:04:44.560Z,11.90
2018-08-31T17:07:15.310Z,11.87
2018-08-31T17:09:45.769Z,11.53
2018-08-31T17:12:18.653Z,13.20
2018-08-31T17:14:52.540Z,14.00
2018-08-31T17:17:24.856Z,12.43
2018-08-31T17:20:01.928Z,14.30
2018-08-31T17:22:32.514Z,11.17
2018-08-31T17:25:03.553Z,11.50
2018-08-31T17:27:40.452Z,10.77
2018-08-31T17:30:17.081Z,10.00
2018-08-31T17:32:52.771Z,9.63
2018-08-31T17:35:29.044Z,11.07
2018-08-31T17:38:00.887Z,11.23
2018-08-31T17:40:31.795Z,10.37
2018-08-31T17:43:02.709Z,10.40
2018-08-31T17:45:33.780Z,11.90
2018-08-31T17:48:05.373Z,12.60
2018-08-31T17:50:35.741Z,11.93
2018-08-31T17:53:06.198Z,13.23
2018-08-31T17:55:36.617Z,12.07
2018-08-31T17:58:07.814Z,10.90
2018-08-31T18:00:38.266Z,12.63
2018-08-31T18:03:09.112Z,11.03
2018-08-31T18:05:39.459Z,11.80
2018-08-31T18:08:11.729Z,10.90
2018-08-31T18:10:42.253Z,11.30
2018-08-31T18:13:12.996Z,11.20
2018-08-31T18:15:43.452Z,11.13
2018-08-31T18:18:13.706Z,12.60
2018-08-31T18:20:44.035Z,11.90
2018-08-31T18:23:14.513Z,11.13
2018-08-31T18:25:45.249Z,10.10
2018-08-31T18:28:15.791Z,10.00
2018-08-31T18:30:46.664Z,11.43
2018-08-31T18:33:25.075Z,11.60
2018-08-31T18:35:55.918Z,11.83
2018-08-31T18:38:26.417Z,11.40
2018-08-31T18:40:57.555Z,12.90
2018-08-31T18:43:27.957Z,12.73
2018-08-31T18:45:59.577Z,12.37
2018-08-31T18:48:37.245Z,12.53
2018-08-31T18:51:07.665Z,12.97
2018-08-31T18:53:38.923Z,12.17
2018-08-31T18:56:11.150Z,13.20
2018-08-31T18:58:41.488Z,12.43
2018-08-31T19:01:12.788Z,12.73
2018-08-31T19:03:43.425Z,12.97
2018-08-31T19:06:13.741Z,13.40
2018-08-31T19:08:44.145Z,13.80
2018-08-31T19:11:16.230Z,12.27
2018-08-31T19:13:46.802Z,13.30
2018-08-31T19:16:17.138Z,13.33
2018-08-31T19:18:47.514Z,12.60
2018-08-31T19:21:17.880Z,12.40
2018-08-31T19:23:49.033Z,12.23
2018-08-31T19:26:20.124Z,12.63
2018-08-31T19:28:50.461Z,11.80
2018-08-31T19:31:21.380Z,11.00
2018-08-31T19:33:51.697Z,12.37
2018-08-31T19:36:22.968Z,11.43
2018-08-31T19:38:54.208Z,11.60
2018-08-31T19:41:24.691Z,11.50
2018-08-31T19:43:57.329Z,13.10
2018-08-31T19:46:29.666Z,14.20
2018-08-31T19:49:00.638Z,13.87
2018-08-31T19:51:32.200Z,13.80
2018-08-31T19:54:03.158Z,14.93
2018-08-31T19:56:33.421Z,13.97
2018-08-31T19:59:03.808Z,14.70
2018-08-31T20:01:34.189Z,13.37
2018-08-31T20:04:04.609Z,13.63
2018-08-31T20:06:35.982Z,13.87
2018-08-31T20:09:09.164Z,11.27
2018-08-31T20:11:42.020Z,13.77
2018-08-31T20:14:14.061Z,12.83
2018-08-31T20:16:44.838Z,13.07
2018-08-31T20:19:24.471Z,13.47
2018-08-31T20:21:56.126Z,13.70
2018-08-31T20:24:26.660Z,12.30
2018-08-31T20:26:57.684Z,12.40
2018-08-31T20:29:28.033Z,21.77
2018-08-31T20:31:58.449Z,20.13
2018-08-31T20:34:29.233Z,14.10
2018-08-31T20:37:02.265Z,14.93
2018-08-31T20:39:37.537Z,13.30
2018-08-31T20:42:07.948Z,13.00
2018-08-31T20:44:38.821Z,13.70
2018-08-31T20:47:09.257Z,12.77
2018-08-31T20:49:40.607Z,11.70
2018-08-31T20:52:11.871Z,12.40
2018-08-31T20:54:42.357Z,12.50
2018-08-31T20:57:12.765Z,14.30
2018-08-31T20:59:43.198Z,14.67
2018-08-31T21:02:13.628Z,12.23
2018-08-31T21:04:43.960Z,11.97
2018-08-31T21:07:14.302Z,11.87
2018-08-31T21:09:45.053Z,11.83
2018-08-31T21:12:15.504Z,12.33
2018-08-31T21:14:46.489Z,12.63
2018-08-31T21:17:18.739Z,12.70
2018-08-31T21:19:50.897Z,12.20
2018-08-31T21:22:22.146Z,11.27
2018-08-31T21:24:54.336Z,13.33
2018-08-31T21:27:24.807Z,12.90
2018-08-31T21:29:56.837Z,13.00
2018-08-31T21:32:28.227Z,11.67
2018-08-31T21:34:59.138Z,13.43
2018-08-31T21:37:30.000Z,13.07
2018-08-31T21:40:01.432Z,12.57
2018-08-31T21:42:32.698Z,12.93
2018-08-31T21:45:04.521Z,13.80
2018-08-31T21:47:35.212Z,14.20
2018-08-31T21:50:06.112Z,12.90
2018-08-31T21:52:38.169Z,12.70
2018-08-31T21:55:09.685Z,12.10
2018-08-31T21:57:42.032Z,12.57
2018-08-31T22:00:18.349Z,12.37
2018-08-31T22:02:53.057Z,12.00
2018-08-31T22:05:23.780Z,12.60
2018-08-31T22:07:54.994Z,12.97
2018-08-31T22:10:27.944Z,14.20
2018-08-31T22:12:58.357Z,13.97
2018-08-31T22:15:28.849Z,12.67
2018-08-31T22:18:03.037Z,13.40
2018-08-31T22:20:33.426Z,12.70
2018-08-31T22:23:04.982Z,12.60
2018-08-31T22:25:36.536Z,11.50
2018-08-31T22:28:07.253Z,12.67
2018-08-31T22:30:39.118Z,13.17
2018-08-31T22:33:09.514Z,13.20
2018-08-31T22:35:40.120Z,12.97
2018-08-31T22:38:11.422Z,11.40
2018-08-31T22:40:42.726Z,12.30
2018-08-31T22:43:13.580Z,13.50
2018-08-31T22:45:44.132Z,13.90
2018-08-31T22:48:14.946Z,12.20
2018-08-31T22:50:45.380Z,12.70
2018-08-31T22:53:17.634Z,12.13
2018-08-31T22:55:49.433Z,13.20
2018-08-31T22:58:21.177Z,12.80
2018-08-31T23:00:53.408Z,13.40
2018-08-31T23:03:23.957Z,13.73
2018-08-31T23:05:54.984Z,12.97
2018-08-31T23:08:25.642Z,13.73
2018-08-31T23:10:55.997Z,12.90
2018-08-31T23:13:26.672Z,12.57
2018-08-31T23:15:57.874Z,13.10
2018-08-31T23:18:30.237Z,12.90
2018-08-31T23:21:00.588Z,12.23
2018-08-31T23:23:36.082Z,12.80
2018-08-31T23:26:06.516Z,12.20
2018-08-31T23:28:37.107Z,12.90
2018-08-31T23:31:07.536Z,12.93
2018-08-31T23:33:37.956Z,13.00
2018-08-31T23:36:08.717Z,12.80
2018-08-31T23:38:39.186Z,12.90
2018-08-31T23:41:10.093Z,12.77
2018-08-31T23:43:40.503Z,12.63
2018-08-31T23:46:11.869Z,13.13
2018-08-31T23:48:43.181Z,13.17
2018-08-31T23:51:14.115Z,12.80
2018-08-31T23:53:45.026Z,12.40
2018-08-31T23:56:15.356Z,12.90
2018-08-31T23:58:45.699Z,13.30
